createdAt,value
2023-01-25T00:00:40.135Z,99906.19
2023-01-25T00:01:30.924Z,99910.63
2023-01-25T00:02:22.238Z,99907.94
2023-01-25T00:02:54.756Z,99905.31
2023-01-25T00:03:46.198Z,99912.28
2023-01-25T00:04:21.931Z,99908.81
2023-01-25T00:04:54.756Z,99910.50
2023-01-25T00:05:47.276Z,99907.88
2023-01-25T00:06:20.025Z,99907.13
2023-01-25T00:07:11.989Z,99914.91
2023-01-25T00:07:44.726Z,99915.84
2023-01-25T00:08:17.458Z,99918.41
2023-01-25T00:08:52.463Z,99916.72
2023-01-25T00:09:43.754Z,99915.91
2023-01-25T00:10:16.325Z,99911.50
2023-01-25T00:11:08.991Z,99917.59
2023-01-25T00:11:42.621Z,99919.28
2023-01-25T00:12:47.464Z,99914.97
2023-01-25T00:13:59.830Z,99926.25
2023-01-25T00:14:32.622Z,99925.31
2023-01-25T00:15:06.620Z,99920.97
2023-01-25T00:15:39.091Z,99930.56
2023-01-25T00:16:11.888Z,99926.22
2023-01-25T00:16:44.670Z,99921.84
2023-01-25T00:17:17.389Z,99929.78
2023-01-25T00:17:50.233Z,99928.91
2023-01-25T00:18:42.102Z,99923.69
2023-01-25T00:19:14.865Z,99925.44
2023-01-25T00:19:47.618Z,99930.66
2023-01-25T00:20:21.140Z,99925.44
2023-01-25T00:20:53.707Z,99931.63
2023-01-25T00:21:28.152Z,99935.03
2023-01-25T00:22:00.873Z,99935.88
2023-01-25T00:22:34.983Z,99935.88
2023-01-25T00:23:07.710Z,99935.00
2023-01-25T00:23:22.822Z,99931.47
2023-01-25T00:23:55.589Z,99933.22
2023-01-25T00:24:28.333Z,99932.34
2023-01-25T00:25:00.789Z,99930.59
2023-01-25T00:25:33.361Z,99930.59
2023-01-25T00:26:06.104Z,99932.31
2023-01-25T00:26:19.076Z,99933.19
2023-01-25T00:27:10.767Z,99932.31
2023-01-25T00:28:02.703Z,99928.88
2023-01-25T00:28:36.571Z,99930.59
2023-01-25T00:29:11.452Z,99923.63
2023-01-25T00:30:02.743Z,99923.63
2023-01-25T00:30:35.474Z,99925.34
2023-01-25T00:31:35.117Z,99920.06
2023-01-25T00:32:21.936Z,99924.47
2023-01-25T00:33:18.201Z,99923.59
2023-01-25T00:33:51.892Z,99923.63
2023-01-25T00:34:43.860Z,99917.53
2023-01-25T00:35:16.434Z,99917.66
2023-01-25T00:35:48.952Z,99918.47
2023-01-25T00:36:40.867Z,99920.13
2023-01-25T00:37:38.046Z,99927.03
2023-01-25T00:38:31.345Z,99917.53
2023-01-25T00:39:22.422Z,99921.81
2023-01-25T00:39:41.855Z,99919.13
2023-01-25T00:39:54.711Z,99917.37
2023-01-25T00:40:09.515Z,99919.09
2023-01-25T00:40:22.414Z,99925.22
2023-01-25T00:40:35.327Z,99920.88
2023-01-25T00:40:49.547Z,99924.44
2023-01-25T00:41:02.397Z,99923.56
2023-01-25T00:41:15.260Z,99926.16
2023-01-25T00:41:28.218Z,99919.13
2023-01-25T00:41:41.074Z,99918.22
2023-01-25T00:41:54.128Z,99919.09
2023-01-25T00:42:10.943Z,99917.41
2023-01-25T00:42:23.844Z,99920.88
2023-01-25T00:42:36.679Z,99920.94
2023-01-25T00:42:49.548Z,99922.75
2023-01-25T00:43:02.557Z,99922.75
2023-01-25T00:43:15.423Z,99920.97
2023-01-25T00:43:28.261Z,99924.44
2023-01-25T00:43:41.336Z,99922.69
2023-01-25T00:43:54.255Z,99923.59
2023-01-25T00:44:07.221Z,99922.69
2023-01-25T00:44:20.077Z,99918.34
2023-01-25T00:44:32.943Z,99920.88
2023-01-25T00:44:45.989Z,99920.03
2023-01-25T00:44:58.863Z,99922.63
2023-01-25T00:45:12.245Z,99920.00
2023-01-25T00:45:25.073Z,99916.53
2023-01-25T00:45:37.952Z,99924.44
2023-01-25T00:45:50.848Z,99921.84
2023-01-25T00:46:03.907Z,99915.75
2023-01-25T00:46:17.754Z,99921.81
2023-01-25T00:46:30.694Z,99918.34
2023-01-25T00:46:43.509Z,99918.34
2023-01-25T00:46:56.359Z,99918.38
2023-01-25T00:47:10.560Z,99926.22
2023-01-25T00:47:23.469Z,99922.72
2023-01-25T00:47:36.335Z,99920.94
2023-01-25T00:47:49.214Z,99923.59
2023-01-25T00:48:02.072Z,99929.69
2023-01-25T00:48:14.930Z,99920.94
2023-01-25T00:48:27.732Z,99922.63
2023-01-25T00:48:40.575Z,99924.37
2023-01-25T00:48:54.797Z,99927.91
2023-01-25T00:49:08.274Z,99921.84
2023-01-25T00:49:25.864Z,99916.63
2023-01-25T00:49:38.914Z,99918.31
2023-01-25T00:49:54.108Z,99921.81
2023-01-25T00:50:07.810Z,99921.84
2023-01-25T00:50:20.668Z,99918.34
2023-01-25T00:50:33.596Z,99921.88
2023-01-25T00:50:46.594Z,99931.44
2023-01-25T00:51:02.443Z,99924.47
2023-01-25T00:51:15.778Z,99926.19
2023-01-25T00:51:28.606Z,99921.81
2023-01-25T00:51:41.465Z,99927.88
2023-01-25T00:51:54.577Z,99930.47
2023-01-25T00:52:07.909Z,99929.59
2023-01-25T00:52:22.114Z,99933.16
2023-01-25T00:52:35.038Z,99934.88
2023-01-25T00:52:47.892Z,99930.44
2023-01-25T00:53:00.703Z,99931.34
2023-01-25T00:53:13.532Z,99934.91
2023-01-25T00:53:26.354Z,99931.53
2023-01-25T00:53:39.221Z,99928.12
2023-01-25T00:53:52.088Z,99934.25
2023-01-25T00:54:04.928Z,99937.72
2023-01-25T00:54:18.023Z,99935.94
2023-01-25T00:54:30.885Z,99935.88
2023-01-25T00:54:43.779Z,99932.47
2023-01-25T00:54:57.186Z,99936.88
2023-01-25T00:55:10.526Z,99936.00
2023-01-25T00:55:23.485Z,99930.66
2023-01-25T00:55:36.323Z,99928.88
2023-01-25T00:55:52.787Z,99933.19
2023-01-25T00:56:05.792Z,99940.19
2023-01-25T00:56:18.668Z,99929.69
2023-01-25T00:56:31.486Z,99930.59
2023-01-25T00:56:44.497Z,99934.03
2023-01-25T00:56:57.395Z,99935.69
2023-01-25T00:57:10.502Z,99935.69
2023-01-25T00:57:23.343Z,99931.38
2023-01-25T00:57:36.203Z,99926.16
2023-01-25T00:57:49.069Z,99930.47
2023-01-25T00:58:01.918Z,99931.34
2023-01-25T00:58:14.782Z,99931.38
2023-01-25T00:58:27.577Z,99927.91
2023-01-25T00:58:41.150Z,99935.78
2023-01-25T00:58:53.985Z,99933.19
2023-01-25T00:59:06.970Z,99927.94
2023-01-25T00:59:20.370Z,99935.78
2023-01-25T00:59:33.273Z,99934.03
2023-01-25T00:59:47.553Z,99938.38
2023-01-25T01:00:00.447Z,99936.62
2023-01-25T01:00:13.827Z,99929.59
2023-01-25T01:00:26.666Z,99932.28
2023-01-25T01:00:39.568Z,99930.47
2023-01-25T01:00:56.018Z,99931.34
2023-01-25T01:01:09.149Z,99936.62
2023-01-25T01:01:22.093Z,99932.19
2023-01-25T01:01:35.134Z,99929.59
2023-01-25T01:01:48.016Z,99929.59
2023-01-25T01:02:01.393Z,99931.34
2023-01-25T01:02:14.236Z,99935.66
2023-01-25T01:02:27.106Z,99933.91
2023-01-25T01:02:40.019Z,99931.28
2023-01-25T01:02:52.831Z,99936.50
2023-01-25T01:03:05.687Z,99932.16
2023-01-25T01:03:18.503Z,99931.31
2023-01-25T01:03:31.336Z,99934.03
2023-01-25T01:03:44.167Z,99933.16
2023-01-25T01:03:57.022Z,99931.38
2023-01-25T01:04:10.029Z,99934.88
2023-01-25T01:04:25.921Z,99927.88
2023-01-25T01:04:38.808Z,99933.09
2023-01-25T01:04:51.759Z,99933.16
2023-01-25T01:05:04.992Z,99930.53
2023-01-25T01:05:17.982Z,99933.94
2023-01-25T01:05:30.845Z,99928.72
2023-01-25T01:05:43.666Z,99930.47
2023-01-25T01:06:14.176Z,99930.47
2023-01-25T01:06:27.050Z,99940.03
2023-01-25T01:06:40.885Z,99938.25
2023-01-25T01:06:54.037Z,99929.53
2023-01-25T01:07:06.914Z,99925.13
2023-01-25T01:07:19.776Z,99926.00
2023-01-25T01:07:32.597Z,99940.84
2023-01-25T01:07:45.775Z,99936.50
2023-01-25T01:07:58.590Z,99935.62
2023-01-25T01:08:12.485Z,99935.69
2023-01-25T01:08:25.381Z,99941.78
2023-01-25T01:08:56.871Z,99929.59
2023-01-25T01:09:13.694Z,99939.19
2023-01-25T01:09:26.575Z,99933.91
2023-01-25T01:09:39.468Z,99941.72
2023-01-25T01:09:52.323Z,99938.22
2023-01-25T01:10:05.757Z,99938.22
2023-01-25T01:10:18.674Z,99933.00
2023-01-25T01:10:31.514Z,99936.53
2023-01-25T01:10:44.339Z,99936.50
2023-01-25T01:11:01.094Z,99932.13
2023-01-25T01:11:14.126Z,99939.13
2023-01-25T01:11:26.990Z,99935.66
2023-01-25T01:11:39.831Z,99937.38
2023-01-25T01:11:52.945Z,99932.13
2023-01-25T01:12:05.782Z,99938.25
2023-01-25T01:12:18.616Z,99934.72
2023-01-25T01:12:31.457Z,99933.00
2023-01-25T01:12:44.361Z,99928.69
2023-01-25T01:12:57.190Z,99939.13
2023-01-25T01:13:10.027Z,99939.13
2023-01-25T01:13:22.858Z,99940.84
2023-01-25T01:13:35.711Z,99941.72
2023-01-25T01:13:48.604Z,99941.72
2023-01-25T01:14:01.444Z,99930.34
2023-01-25T01:14:14.339Z,99936.50
2023-01-25T01:14:28.008Z,99935.62
2023-01-25T01:14:40.908Z,99934.72
2023-01-25T01:14:53.737Z,99933.03
2023-01-25T01:15:07.778Z,99939.13
2023-01-25T01:15:20.794Z,99933.06
2023-01-25T01:15:36.729Z,99935.66
2023-01-25T01:15:49.664Z,99933.06
2023-01-25T01:16:03.414Z,99934.81
2023-01-25T01:16:16.361Z,99931.31
2023-01-25T01:16:29.264Z,99934.78
2023-01-25T01:16:42.201Z,99939.09
2023-01-25T01:16:57.079Z,99932.91
2023-01-25T01:17:10.732Z,99932.97
2023-01-25T01:17:23.670Z,99933.00
2023-01-25T01:17:36.580Z,99932.19
2023-01-25T01:17:49.406Z,99923.41
2023-01-25T01:18:02.414Z,99933.88
2023-01-25T01:18:15.247Z,99935.62
2023-01-25T01:18:28.356Z,99929.53
2023-01-25T01:18:42.994Z,99928.69
2023-01-25T01:18:55.853Z,99932.19
2023-01-25T01:19:08.788Z,99931.31
2023-01-25T01:19:21.656Z,99927.91
2023-01-25T01:19:34.658Z,99930.56
2023-01-25T01:19:47.542Z,99932.31
2023-01-25T01:20:00.367Z,99924.44
2023-01-25T01:20:13.311Z,99930.47
2023-01-25T01:20:26.203Z,99926.16
2023-01-25T01:20:39.026Z,99927.84
2023-01-25T01:20:52.638Z,99932.16
2023-01-25T01:21:05.792Z,99935.66
2023-01-25T01:21:18.618Z,99927.03
2023-01-25T01:21:31.515Z,99930.47
2023-01-25T01:21:44.357Z,99933.94
2023-01-25T01:21:57.207Z,99928.69
2023-01-25T01:22:10.816Z,99931.31
2023-01-25T01:22:23.711Z,99935.69
2023-01-25T01:22:36.566Z,99929.56
2023-01-25T01:22:52.475Z,99929.56
2023-01-25T01:23:05.297Z,99933.94
2023-01-25T01:23:18.328Z,99932.28
2023-01-25T01:23:31.383Z,99931.34
2023-01-25T01:23:44.365Z,99931.34
2023-01-25T01:23:57.315Z,99931.38
2023-01-25T01:24:10.899Z,99933.94
2023-01-25T01:24:23.854Z,99928.72
2023-01-25T01:24:36.750Z,99926.97
2023-01-25T01:24:49.765Z,99936.53
2023-01-25T01:25:02.609Z,99924.37
2023-01-25T01:25:15.519Z,99931.31
2023-01-25T01:25:28.329Z,99936.53
2023-01-25T01:25:41.239Z,99928.66
2023-01-25T01:25:54.112Z,99931.34
2023-01-25T01:26:08.293Z,99935.75
2023-01-25T01:26:21.110Z,99937.44
2023-01-25T01:26:33.989Z,99933.94
2023-01-25T01:26:46.831Z,99933.91
2023-01-25T01:26:59.702Z,99934.78
2023-01-25T01:27:12.555Z,99940.00
2023-01-25T01:27:25.459Z,99936.50
2023-01-25T01:27:38.285Z,99939.13
2023-01-25T01:27:51.111Z,99929.66
2023-01-25T01:28:03.956Z,99934.91
2023-01-25T01:28:16.807Z,99931.38
2023-01-25T01:28:30.482Z,99938.41
2023-01-25T01:28:43.373Z,99934.88
2023-01-25T01:28:56.257Z,99927.03
2023-01-25T01:29:09.158Z,99931.41
2023-01-25T01:29:22.156Z,99940.09
2023-01-25T01:29:35.059Z,99933.16
2023-01-25T01:29:47.943Z,99935.78
2023-01-25T01:30:00.781Z,99933.19
2023-01-25T01:30:13.854Z,99933.19
2023-01-25T01:30:26.757Z,99929.72
2023-01-25T01:30:39.946Z,99932.31
2023-01-25T01:30:52.767Z,99928.84
2023-01-25T01:31:07.329Z,99931.44
2023-01-25T01:31:23.828Z,99930.59
2023-01-25T01:31:36.685Z,99933.16
2023-01-25T01:31:55.698Z,99931.38
2023-01-25T01:32:08.524Z,99931.38
2023-01-25T01:32:21.348Z,99934.03
2023-01-25T01:32:34.424Z,99927.03
2023-01-25T01:32:47.385Z,99928.78
2023-01-25T01:33:00.357Z,99925.25
2023-01-25T01:33:13.209Z,99935.75
2023-01-25T01:33:26.036Z,99928.78
2023-01-25T01:33:38.939Z,99937.38
2023-01-25T01:33:52.651Z,99931.25
2023-01-25T01:34:05.556Z,99927.00
2023-01-25T01:34:19.007Z,99934.81
2023-01-25T01:34:31.850Z,99935.78
2023-01-25T01:34:44.752Z,99934.88
2023-01-25T01:34:57.634Z,99928.72
2023-01-25T01:35:10.563Z,99932.19
2023-01-25T01:35:23.406Z,99930.47
2023-01-25T01:35:36.221Z,99928.72
2023-01-25T01:35:49.105Z,99936.56
2023-01-25T01:36:12.418Z,99938.28
2023-01-25T01:36:26.713Z,99932.16
2023-01-25T01:36:39.679Z,99929.53
2023-01-25T01:36:52.609Z,99931.28
2023-01-25T01:37:05.452Z,99933.91
2023-01-25T01:37:18.306Z,99933.03
2023-01-25T01:37:31.183Z,99930.41
2023-01-25T01:37:44.056Z,99928.66
2023-01-25T01:37:56.925Z,99935.62
2023-01-25T01:38:09.746Z,99927.81
2023-01-25T01:38:22.570Z,99930.47
2023-01-25T01:38:35.422Z,99932.19
2023-01-25T01:38:48.486Z,99927.94
2023-01-25T01:39:01.333Z,99930.47
2023-01-25T01:39:16.918Z,99929.59
2023-01-25T01:39:29.821Z,99933.94
2023-01-25T01:39:42.709Z,99935.66
2023-01-25T01:39:55.610Z,99933.09
2023-01-25T01:40:09.315Z,99935.69
2023-01-25T01:40:22.169Z,99933.94
2023-01-25T01:40:35.021Z,99933.09
2023-01-25T01:40:47.961Z,99930.47
2023-01-25T01:41:00.846Z,99937.41
2023-01-25T01:41:13.866Z,99934.81
2023-01-25T01:41:26.737Z,99934.78
2023-01-25T01:41:39.650Z,99928.72
2023-01-25T01:41:52.587Z,99937.44
2023-01-25T01:42:05.433Z,99936.56
2023-01-25T01:42:18.303Z,99934.78
2023-01-25T01:42:31.183Z,99933.91
2023-01-25T01:43:00.705Z,99937.34
2023-01-25T01:43:17.504Z,99933.84
2023-01-25T01:43:33.272Z,99937.22
2023-01-25T01:43:46.290Z,99933.91
2023-01-25T01:43:59.392Z,99927.72
2023-01-25T01:44:27.773Z,99932.09
2023-01-25T01:44:43.034Z,99935.56
2023-01-25T01:44:56.100Z,99942.53
2023-01-25T01:45:45.965Z,99933.88
2023-01-25T01:46:00.327Z,99939.09
2023-01-25T01:46:34.620Z,99931.22
2023-01-25T01:46:49.425Z,99932.19
2023-01-25T01:47:02.114Z,99937.38
2023-01-25T01:47:18.265Z,99936.53
2023-01-25T01:47:35.543Z,99934.72
2023-01-25T01:47:48.859Z,99937.34
2023-01-25T01:48:01.539Z,99942.59
2023-01-25T01:48:41.531Z,99933.94
2023-01-25T01:49:03.448Z,99933.91
2023-01-25T01:49:20.095Z,99933.75
2023-01-25T01:49:32.910Z,99932.03
2023-01-25T01:49:50.234Z,99930.34
2023-01-25T01:50:06.832Z,99933.84
2023-01-25T01:50:21.377Z,99937.31
2023-01-25T01:50:34.250Z,99935.59
2023-01-25T01:50:48.762Z,99931.25
2023-01-25T01:51:08.931Z,99932.16
2023-01-25T01:51:47.869Z,99938.31
2023-01-25T01:52:21.220Z,99935.66
2023-01-25T01:52:35.241Z,99929.47
2023-01-25T01:52:47.908Z,99937.31
2023-01-25T01:53:00.745Z,99930.28
2023-01-25T01:53:13.566Z,99926.84
2023-01-25T01:53:26.457Z,99926.91
2023-01-25T01:53:40.249Z,99932.09
2023-01-25T01:54:59.925Z,99926.00
2023-01-25T01:55:18.257Z,99926.94
2023-01-25T01:55:30.902Z,99923.38
2023-01-25T01:55:43.579Z,99926.88
2023-01-25T01:55:57.352Z,99919.03
2023-01-25T01:56:11.483Z,99926.03
2023-01-25T01:56:28.989Z,99926.03
2023-01-25T01:56:44.367Z,99921.66
2023-01-25T01:57:14.421Z,99926.03
2023-01-25T01:57:32.200Z,99917.22
2023-01-25T01:57:47.799Z,99922.44
2023-01-25T01:58:00.783Z,99923.41
2023-01-25T01:58:13.636Z,99923.41
2023-01-25T01:58:26.836Z,99924.25
2023-01-25T01:58:42.761Z,99926.88
2023-01-25T01:58:55.658Z,99922.53
2023-01-25T01:59:08.533Z,99923.38
2023-01-25T01:59:22.213Z,99925.94
2023-01-25T01:59:44.390Z,99925.97
2023-01-25T01:59:58.732Z,99924.19
2023-01-25T02:00:31.239Z,99918.06
2023-01-25T02:00:43.878Z,99925.91
2023-01-25T02:00:56.571Z,99923.31
2023-01-25T02:01:09.442Z,99921.56
2023-01-25T02:01:22.395Z,99922.44
2023-01-25T02:01:35.392Z,99921.62
2023-01-25T02:01:48.301Z,99928.53
2023-01-25T02:02:01.149Z,99926.91
2023-01-25T02:02:14.557Z,99920.81
2023-01-25T02:02:27.547Z,99919.94
2023-01-25T02:02:41.336Z,99918.09
2023-01-25T02:02:54.401Z,99918.13
2023-01-25T02:03:07.315Z,99925.13
2023-01-25T02:03:38.882Z,99918.19
2023-01-25T02:03:51.839Z,99917.41
2023-01-25T02:04:05.107Z,99921.75
2023-01-25T02:04:19.189Z,99920.84
2023-01-25T02:04:32.038Z,99919.91
2023-01-25T02:04:46.480Z,99918.19
2023-01-25T02:05:00.635Z,99920.75
2023-01-25T02:05:20.769Z,99918.13
2023-01-25T02:05:33.506Z,99919.03
2023-01-25T02:06:24.645Z,99916.34
2023-01-25T02:06:42.828Z,99918.94
2023-01-25T02:07:06.120Z,99925.00
2023-01-25T02:07:25.634Z,99919.75
2023-01-25T02:07:39.011Z,99931.97
2023-01-25T02:07:52.213Z,99923.28
2023-01-25T02:08:05.236Z,99924.16
2023-01-25T02:08:18.109Z,99918.94
2023-01-25T02:08:32.691Z,99921.66
2023-01-25T02:08:45.623Z,99925.13
2023-01-25T02:08:58.479Z,99915.47
2023-01-25T02:09:11.828Z,99926.00
2023-01-25T02:09:25.543Z,99920.75
2023-01-25T02:09:38.453Z,99918.13
2023-01-25T02:09:51.385Z,99916.41
2023-01-25T02:10:05.903Z,99921.66
2023-01-25T02:10:18.755Z,99915.53
2023-01-25T02:10:31.653Z,99915.59
2023-01-25T02:10:44.524Z,99921.66
2023-01-25T02:10:57.365Z,99915.53
2023-01-25T02:11:10.329Z,99919.84
2023-01-25T02:11:23.162Z,99917.22
2023-01-25T02:11:36.009Z,99922.50
2023-01-25T02:11:48.913Z,99919.06
2023-01-25T02:12:01.751Z,99917.28
2023-01-25T02:12:14.597Z,99917.28
2023-01-25T02:12:27.468Z,99911.22
2023-01-25T02:12:40.296Z,99922.59
2023-01-25T02:12:54.018Z,99919.97
2023-01-25T02:13:06.845Z,99920.81
2023-01-25T02:13:19.790Z,99916.47
2023-01-25T02:13:32.658Z,99919.09
2023-01-25T02:13:45.541Z,99913.00
2023-01-25T02:13:58.516Z,99912.13
2023-01-25T02:14:11.341Z,99924.28
2023-01-25T02:14:24.179Z,99915.59
2023-01-25T02:14:37.019Z,99913.84
2023-01-25T02:14:52.126Z,99914.69
2023-01-25T02:15:05.503Z,99915.53
2023-01-25T02:15:18.432Z,99915.56
2023-01-25T02:15:38.821Z,99917.31
2023-01-25T02:15:51.940Z,99921.72
2023-01-25T02:16:05.419Z,99915.63
2023-01-25T02:16:19.966Z,99920.81
2023-01-25T02:16:32.928Z,99918.22
2023-01-25T02:16:45.890Z,99920.78
2023-01-25T02:16:58.725Z,99919.84
2023-01-25T02:17:11.809Z,99915.53
2023-01-25T02:17:32.363Z,99914.63
2023-01-25T02:17:44.989Z,99920.78
2023-01-25T02:17:57.631Z,99921.62
2023-01-25T02:18:10.953Z,99920.75
2023-01-25T02:18:24.039Z,99921.56
2023-01-25T02:18:36.882Z,99914.59
2023-01-25T02:18:49.746Z,99920.78
2023-01-25T02:19:03.772Z,99920.78
2023-01-25T02:19:42.299Z,99921.72
2023-01-25T02:20:00.802Z,99919.06
2023-01-25T02:20:37.526Z,99925.19
2023-01-25T02:20:54.404Z,99921.72
2023-01-25T02:21:07.249Z,99923.41
2023-01-25T02:21:20.100Z,99923.41
2023-01-25T02:21:37.131Z,99919.06
2023-01-25T02:22:10.336Z,99926.91
2023-01-25T02:22:24.083Z,99925.16
2023-01-25T03:03:33.347Z,99884.88
2023-01-25T03:04:06.412Z,99888.38
2023-01-25T03:04:57.747Z,99887.44
2023-01-25T03:05:30.846Z,99884.06
2023-01-25T03:06:06.147Z,99884.00
2023-01-25T03:06:57.460Z,99889.22
2023-01-25T03:07:10.286Z,99883.16
2023-01-25T03:07:43.013Z,99883.12
2023-01-25T03:08:34.697Z,99878.75
2023-01-25T03:09:07.675Z,99888.47
2023-01-25T03:11:00.064Z,99885.75
2023-01-25T03:11:32.655Z,99882.31
2023-01-25T03:12:24.083Z,99875.34
2023-01-25T03:13:17.453Z,99877.09
2023-01-25T03:13:50.412Z,99879.75
2023-01-25T03:15:15.871Z,99878.97
2023-01-25T03:16:08.943Z,99881.50
2023-01-25T03:16:41.476Z,99877.16
2023-01-25T03:17:32.622Z,99880.47
2023-01-25T03:18:23.471Z,99883.94
2023-01-25T03:18:56.343Z,99877.84
2023-01-25T03:19:29.020Z,99874.47
2023-01-25T03:20:01.588Z,99870.13
2023-01-25T03:20:34.339Z,99871.75
2023-01-25T03:21:14.487Z,99873.53
2023-01-25T03:21:47.378Z,99875.31
2023-01-25T03:22:00.591Z,99876.16
2023-01-25T03:22:13.618Z,99869.22
2023-01-25T03:22:26.456Z,99877.97
2023-01-25T03:22:39.372Z,99876.16
2023-01-25T03:22:52.193Z,99879.69
2023-01-25T03:23:05.188Z,99879.69
2023-01-25T03:23:18.058Z,99872.72
2023-01-25T03:23:30.919Z,99872.69
2023-01-25T03:23:43.855Z,99872.59
2023-01-25T03:23:58.809Z,99867.38
2023-01-25T03:24:11.938Z,99874.31
2023-01-25T03:24:24.851Z,99874.31
2023-01-25T03:24:37.741Z,99871.69
2023-01-25T03:24:53.803Z,99876.91
2023-01-25T03:25:07.631Z,99873.44
2023-01-25T03:25:20.642Z,99881.31
2023-01-25T03:25:33.478Z,99865.66
2023-01-25T03:25:46.339Z,99873.47
2023-01-25T03:26:10.324Z,99876.97
2023-01-25T03:26:23.267Z,99875.19
2023-01-25T03:26:55.884Z,99875.19
2023-01-25T03:27:11.247Z,99873.44
2023-01-25T03:27:23.962Z,99875.16
2023-01-25T03:27:36.784Z,99869.09
2023-01-25T03:27:49.647Z,99873.53
2023-01-25T03:28:02.487Z,99872.72
2023-01-25T03:28:15.367Z,99878.78
2023-01-25T03:28:28.198Z,99868.25
2023-01-25T03:28:41.272Z,99873.47
2023-01-25T03:28:54.123Z,99874.38
2023-01-25T03:29:06.985Z,99877.78
2023-01-25T03:29:19.857Z,99874.31
2023-01-25T03:29:33.577Z,99876.03
2023-01-25T03:29:46.431Z,99877.75
2023-01-25T03:29:59.336Z,99877.78
2023-01-25T03:30:12.334Z,99879.53
2023-01-25T03:30:25.199Z,99881.31
2023-01-25T03:30:38.106Z,99880.44
2023-01-25T03:30:53.516Z,99883.06
2023-01-25T03:31:06.832Z,99877.78
2023-01-25T03:31:19.779Z,99875.16
2023-01-25T03:31:32.741Z,99876.00
2023-01-25T03:31:45.733Z,99883.91
2023-01-25T03:31:58.827Z,99878.69
2023-01-25T03:32:12.065Z,99876.06
2023-01-25T03:32:25.038Z,99879.53
2023-01-25T03:32:38.373Z,99872.63
2023-01-25T03:32:51.252Z,99884.91
2023-01-25T03:33:04.534Z,99879.69
2023-01-25T03:33:17.408Z,99877.94
2023-01-25T03:33:30.351Z,99882.28
2023-01-25T03:33:43.226Z,99875.22
2023-01-25T03:33:56.060Z,99878.78
2023-01-25T03:34:08.902Z,99881.31
2023-01-25T03:34:21.749Z,99877.06
2023-01-25T03:34:34.652Z,99877.94
2023-01-25T03:34:47.584Z,99880.56
2023-01-25T03:35:00.474Z,99882.31
2023-01-25T03:35:13.306Z,99884.91
2023-01-25T03:35:26.195Z,99877.81
2023-01-25T03:35:39.073Z,99882.19
2023-01-25T03:35:53.282Z,99884.78
2023-01-25T03:36:06.849Z,99884.78
2023-01-25T03:36:19.785Z,99879.53
2023-01-25T03:36:32.720Z,99878.66
2023-01-25T03:36:45.663Z,99883.91
2023-01-25T03:36:58.501Z,99880.44
2023-01-25T03:37:11.477Z,99879.59
2023-01-25T03:37:27.366Z,99890.09
2023-01-25T03:37:40.383Z,99879.63
2023-01-25T03:37:53.216Z,99883.03
2023-01-25T03:38:06.040Z,99884.81
2023-01-25T03:38:20.624Z,99879.66
2023-01-25T03:38:33.660Z,99884.03
2023-01-25T03:38:46.608Z,99884.03
2023-01-25T03:38:59.651Z,99886.66
2023-01-25T03:39:12.526Z,99883.22
2023-01-25T03:39:25.388Z,99883.19
2023-01-25T03:39:38.221Z,99884.94
2023-01-25T03:39:51.085Z,99888.41
2023-01-25T03:40:04.310Z,99872.78
2023-01-25T03:40:17.362Z,99881.44
2023-01-25T03:40:30.227Z,99890.12
2023-01-25T03:40:43.100Z,99888.38
2023-01-25T03:40:55.982Z,99888.31
2023-01-25T03:41:08.837Z,99882.19
2023-01-25T03:41:21.678Z,99890.91
2023-01-25T03:41:34.493Z,99882.28
2023-01-25T03:41:47.345Z,99883.06
2023-01-25T03:42:00.172Z,99890.91
2023-01-25T03:42:13.437Z,99887.37
2023-01-25T03:42:26.313Z,99886.63
2023-01-25T03:42:39.150Z,99889.28
2023-01-25T03:42:53.612Z,99888.34
2023-01-25T03:43:06.522Z,99890.16
2023-01-25T03:43:19.392Z,99880.50
2023-01-25T03:43:32.258Z,99889.28
2023-01-25T03:43:45.127Z,99887.50
2023-01-25T03:43:58.017Z,99885.75
2023-01-25T03:44:11.631Z,99882.25
2023-01-25T03:44:24.593Z,99890.97
2023-01-25T03:44:37.503Z,99885.75
2023-01-25T03:44:50.348Z,99883.06
2023-01-25T03:45:03.392Z,99883.06
2023-01-25T03:45:16.360Z,99882.28
2023-01-25T03:45:29.192Z,99884.88
2023-01-25T03:45:42.312Z,99883.12
2023-01-25T03:45:56.400Z,99887.41
2023-01-25T03:46:09.320Z,99892.69
2023-01-25T03:46:22.143Z,99884.06
2023-01-25T03:46:35.017Z,99889.25
2023-01-25T03:46:48.092Z,99891.03
2023-01-25T03:47:01.052Z,99882.28
2023-01-25T03:47:14.025Z,99884.94
2023-01-25T03:47:26.926Z,99890.16
2023-01-25T03:47:40.299Z,99887.53
2023-01-25T03:47:53.181Z,99888.41
2023-01-25T03:48:06.304Z,99888.47
2023-01-25T03:48:19.154Z,99886.63
2023-01-25T03:48:32.008Z,99884.94
2023-01-25T03:48:44.930Z,99881.47
2023-01-25T03:48:57.769Z,99885.78
2023-01-25T03:49:10.732Z,99884.91
2023-01-25T03:49:23.562Z,99883.16
2023-01-25T03:49:36.435Z,99885.75
2023-01-25T03:49:49.269Z,99882.28
2023-01-25T03:50:02.107Z,99879.69
2023-01-25T03:50:15.156Z,99876.22
2023-01-25T03:50:28.012Z,99881.50
2023-01-25T03:50:40.875Z,99877.97
2023-01-25T03:50:55.396Z,99881.41
2023-01-25T03:51:08.935Z,99883.16
2023-01-25T03:51:21.772Z,99879.63
2023-01-25T03:51:34.678Z,99883.94
2023-01-25T03:51:47.644Z,99879.59
2023-01-25T03:52:00.505Z,99879.59
2023-01-25T03:52:13.350Z,99878.72
2023-01-25T03:52:42.129Z,99874.41
2023-01-25T03:53:07.170Z,99879.66
2023-01-25T03:53:32.168Z,99880.56
2023-01-25T03:53:44.844Z,99877.97
2023-01-25T03:53:57.472Z,99879.75
2023-01-25T03:54:10.432Z,99878.84
2023-01-25T03:54:23.517Z,99880.56
2023-01-25T03:54:36.345Z,99879.63
2023-01-25T03:54:49.224Z,99878.75
2023-01-25T03:55:02.106Z,99872.59
2023-01-25T03:55:14.984Z,99876.94
2023-01-25T03:55:28.340Z,99878.63
2023-01-25T03:55:41.180Z,99876.94
2023-01-25T03:55:55.562Z,99874.38
2023-01-25T03:56:09.834Z,99877.81
2023-01-25T03:56:22.641Z,99877.84
2023-01-25T03:56:35.960Z,99871.72
2023-01-25T03:56:48.797Z,99868.31
2023-01-25T03:57:01.669Z,99872.59
2023-01-25T03:57:14.624Z,99869.94
2023-01-25T03:57:27.493Z,99878.66
2023-01-25T03:57:40.322Z,99873.38
2023-01-25T03:57:53.162Z,99873.41
2023-01-25T03:58:05.997Z,99869.03
2023-01-25T03:58:18.846Z,99874.22
2023-01-25T03:58:31.852Z,99874.22
2023-01-25T03:58:44.763Z,99872.41
2023-01-25T03:58:57.616Z,99870.69
2023-01-25T03:59:11.644Z,99867.22
2023-01-25T03:59:24.595Z,99870.69
2023-01-25T03:59:37.466Z,99857.69
2023-01-25T03:59:50.311Z,99867.28
2023-01-25T04:00:03.921Z,99866.41
2023-01-25T04:00:17.368Z,99871.63
2023-01-25T04:00:30.290Z,99872.50
2023-01-25T04:00:43.203Z,99869.91
2023-01-25T04:00:57.251Z,99866.44
2023-01-25T04:01:10.281Z,99868.16
2023-01-25T04:01:23.314Z,99867.31
2023-01-25T04:01:36.285Z,99864.72
2023-01-25T04:01:49.244Z,99871.72
2023-01-25T04:02:03.056Z,99863.00
2023-01-25T04:02:16.165Z,99865.66
2023-01-25T04:02:29.333Z,99866.50
2023-01-25T04:02:42.449Z,99863.97
2023-01-25T04:02:55.317Z,99868.38
2023-01-25T04:03:08.131Z,99865.69
2023-01-25T04:03:21.671Z,99870.00
2023-01-25T04:03:34.899Z,99868.31
2023-01-25T04:03:47.754Z,99864.78
2023-01-25T04:04:00.629Z,99868.34
2023-01-25T04:04:13.471Z,99860.53
2023-01-25T04:04:26.354Z,99864.00
2023-01-25T04:04:39.259Z,99865.72
2023-01-25T04:04:52.152Z,99866.50
2023-01-25T04:05:05.411Z,99856.03
2023-01-25T04:05:18.453Z,99862.97
2023-01-25T04:05:31.337Z,99862.09